sensor_id;sensor_type;location;lat;lon;timestamp;P1;durP1;ratioP1;P2;durP2;ratioP2
5121;SDS011;2563;52.242;7.956;2024-02-26T00:01:01;11.00;;;5.23;;
5121;SDS011;2563;52.242;7.956;2024-02-26T00:03:27;11.63;;;5.27;;
5121;SDS011;2563;52.242;7.956;2024-02-26T00:05:52;12.93;;;5.13;;
5121;SDS011;2563;52.242;7.956;2024-02-26T00:08:17;10.60;;;4.97;;
5121;SDS011;2563;52.242;7.956;2024-02-26T00:10:43;9.90;;;4.77;;
5121;SDS011;2563;52.242;7.956;2024-02-26T00:13:08;10.97;;;5.43;;
5121;SDS011;2563;52.242;7.956;2024-02-26T00:15:33;14.20;;;5.80;;
5121;SDS011;2563;52.242;7.956;2024-02-26T00:18:00;11.90;;;6.00;;
5121;SDS011;2563;52.242;7.956;2024-02-26T00:20:26;12.90;;;6.13;;
5121;SDS011;2563;52.242;7.956;2024-02-26T00:22:51;21.03;;;6.33;;
5121;SDS011;2563;52.242;7.956;2024-02-26T00:25:17;12.07;;;5.73;;
5121;SDS011;2563;52.242;7.956;2024-02-26T00:27:42;14.53;;;5.93;;
5121;SDS011;2563;52.242;7.956;2024-02-26T00:30:09;11.10;;;5.40;;
5121;SDS011;2563;52.242;7.956;2024-02-26T00:32:35;12.67;;;6.03;;
5121;SDS011;2563;52.242;7.956;2024-02-26T00:35:00;11.70;;;5.60;;
5121;SDS011;2563;52.242;7.956;2024-02-26T00:37:26;15.37;;;5.27;;
5121;SDS011;2563;52.242;7.956;2024-02-26T00:39:51;13.40;;;5.10;;
5121;SDS011;2563;52.242;7.956;2024-02-26T00:42:18;11.80;;;5.40;;
5121;SDS011;2563;52.242;7.956;2024-02-26T00:44:43;15.23;;;5.50;;
5121;SDS011;2563;52.242;7.956;2024-02-26T00:47:08;11.90;;;5.00;;
5121;SDS011;2563;52.242;7.956;2024-02-26T00:49:34;15.17;;;6.10;;
5121;SDS011;2563;52.242;7.956;2024-02-26T00:51:59;10.60;;;5.23;;
5121;SDS011;2563;52.242;7.956;2024-02-26T00:54:25;10.40;;;4.77;;
5121;SDS011;2563;52.242;7.956;2024-02-26T00:56:50;11.17;;;5.50;;
5121;SDS011;2563;52.242;7.956;2024-02-26T00:59:15;12.53;;;5.13;;
5121;SDS011;2563;52.242;7.956;2024-02-26T01:01:41;11.20;;;4.77;;
5121;SDS011;2563;52.242;7.956;2024-02-26T01:04:06;11.70;;;5.50;;
5121;SDS011;2563;52.242;7.956;2024-02-26T01:06:31;11.57;;;5.27;;
5121;SDS011;2563;52.242;7.956;2024-02-26T01:08:57;9.53;;;4.93;;
5121;SDS011;2563;52.242;7.956;2024-02-26T01:11:22;11.80;;;4.93;;
5121;SDS011;2563;52.242;7.956;2024-02-26T01:13:47;9.77;;;4.80;;
5121;SDS011;2563;52.242;7.956;2024-02-26T01:16:13;11.43;;;4.60;;
5121;SDS011;2563;52.242;7.956;2024-02-26T01:18:38;10.10;;;4.40;;
5121;SDS011;2563;52.242;7.956;2024-02-26T01:21:04;10.30;;;4.37;;
5121;SDS011;2563;52.242;7.956;2024-02-26T01:23:33;11.00;;;4.50;;
5121;SDS011;2563;52.242;7.956;2024-02-26T01:25:59;11.77;;;5.20;;
5121;SDS011;2563;52.242;7.956;2024-02-26T01:28:24;13.57;;;5.30;;
5121;SDS011;2563;52.242;7.956;2024-02-26T01:30:49;12.00;;;4.50;;
5121;SDS011;2563;52.242;7.956;2024-02-26T01:33:15;11.03;;;4.87;;
5121;SDS011;2563;52.242;7.956;2024-02-26T01:35:40;12.63;;;4.50;;
5121;SDS011;2563;52.242;7.956;2024-02-26T01:38:05;10.73;;;4.70;;
5121;SDS011;2563;52.242;7.956;2024-02-26T01:40:31;9.20;;;4.17;;
5121;SDS011;2563;52.242;7.956;2024-02-26T01:42:56;9.43;;;4.30;;
5121;SDS011;2563;52.242;7.956;2024-02-26T01:45:21;13.00;;;5.67;;
5121;SDS011;2563;52.242;7.956;2024-02-26T01:47:52;9.00;;;3.80;;
5121;SDS011;2563;52.242;7.956;2024-02-26T01:50:19;11.40;;;4.90;;
5121;SDS011;2563;52.242;7.956;2024-02-26T01:52:45;8.63;;;3.80;;
5121;SDS011;2563;52.242;7.956;2024-02-26T01:55:12;10.37;;;4.00;;
5121;SDS011;2563;52.242;7.956;2024-02-26T01:57:42;10.00;;;4.07;;
5121;SDS011;2563;52.242;7.956;2024-02-26T02:00:10;8.30;;;3.70;;
5121;SDS011;2563;52.242;7.956;2024-02-26T02:02:37;9.60;;;4.13;;
5121;SDS011;2563;52.242;7.956;2024-02-26T02:05:03;9.70;;;4.30;;
5121;SDS011;2563;52.242;7.956;2024-02-26T02:07:30;9.10;;;4.10;;
5121;SDS011;2563;52.242;7.956;2024-02-26T02:09:56;7.87;;;3.47;;
5121;SDS011;2563;52.242;7.956;2024-02-26T02:12:22;8.90;;;3.70;;
5121;SDS011;2563;52.242;7.956;2024-02-26T02:14:47;9.13;;;4.10;;
5121;SDS011;2563;52.242;7.956;2024-02-26T02:17:12;10.77;;;3.97;;
5121;SDS011;2563;52.242;7.956;2024-02-26T02:19:38;7.27;;;3.53;;
5121;SDS011;2563;52.242;7.956;2024-02-26T02:22:03;9.40;;;3.80;;
5121;SDS011;2563;52.242;7.956;2024-02-26T02:24:29;9.97;;;3.97;;
5121;SDS011;2563;52.242;7.956;2024-02-26T02:26:54;8.43;;;3.67;;
5121;SDS011;2563;52.242;7.956;2024-02-26T02:29:20;10.27;;;3.60;;
5121;SDS011;2563;52.242;7.956;2024-02-26T02:31:46;11.40;;;3.30;;
5121;SDS011;2563;52.242;7.956;2024-02-26T02:34:12;9.17;;;3.87;;
5121;SDS011;2563;52.242;7.956;2024-02-26T02:36:48;10.03;;;4.07;;
5121;SDS011;2563;52.242;7.956;2024-02-26T02:39:15;8.43;;;3.77;;
5121;SDS011;2563;52.242;7.956;2024-02-26T02:41:40;8.43;;;3.57;;
5121;SDS011;2563;52.242;7.956;2024-02-26T02:44:06;9.00;;;3.77;;
5121;SDS011;2563;52.242;7.956;2024-02-26T02:46:31;8.60;;;3.80;;
5121;SDS011;2563;52.242;7.956;2024-02-26T02:48:58;8.80;;;3.60;;
5121;SDS011;2563;52.242;7.956;2024-02-26T02:51:24;8.00;;;3.40;;
5121;SDS011;2563;52.242;7.956;2024-02-26T02:53:49;13.00;;;4.07;;
5121;SDS011;2563;52.242;7.956;2024-02-26T02:56:14;8.93;;;3.50;;
5121;SDS011;2563;52.242;7.956;2024-02-26T02:58:40;8.43;;;3.30;;
5121;SDS011;2563;52.242;7.956;2024-02-26T03:01:05;8.60;;;4.07;;
5121;SDS011;2563;52.242;7.956;2024-02-26T03:03:30;7.93;;;3.10;;
5121;SDS011;2563;52.242;7.956;2024-02-26T03:05:56;11.47;;;4.60;;
5121;SDS011;2563;52.242;7.956;2024-02-26T03:08:21;7.67;;;3.50;;
5121;SDS011;2563;52.242;7.956;2024-02-26T03:10:47;7.80;;;3.50;;
5121;SDS011;2563;52.242;7.956;2024-02-26T03:13:13;8.67;;;3.60;;
5121;SDS011;2563;52.242;7.956;2024-02-26T03:15:39;7.60;;;3.13;;
5121;SDS011;2563;52.242;7.956;2024-02-26T03:18:04;8.53;;;3.43;;
5121;SDS011;2563;52.242;7.956;2024-02-26T03:20:29;8.43;;;3.50;;
5121;SDS011;2563;52.242;7.956;2024-02-26T03:22:55;6.87;;;3.10;;
5121;SDS011;2563;52.242;7.956;2024-02-26T03:25:20;7.10;;;3.20;;
5121;SDS011;2563;52.242;7.956;2024-02-26T03:27:45;6.23;;;2.73;;
5121;SDS011;2563;52.242;7.956;2024-02-26T03:30:11;7.83;;;3.57;;
5121;SDS011;2563;52.242;7.956;2024-02-26T03:32:36;9.40;;;3.50;;
5121;SDS011;2563;52.242;7.956;2024-02-26T03:35:02;7.10;;;3.00;;
5121;SDS011;2563;52.242;7.956;2024-02-26T03:37:27;8.00;;;3.10;;
5121;SDS011;2563;52.242;7.956;2024-02-26T03:39:52;9.83;;;3.70;;
5121;SDS011;2563;52.242;7.956;2024-02-26T03:42:18;8.40;;;3.50;;
5121;SDS011;2563;52.242;7.956;2024-02-26T03:44:44;7.00;;;3.30;;
5121;SDS011;2563;52.242;7.956;2024-02-26T03:47:09;7.73;;;3.43;;
5121;SDS011;2563;52.242;7.956;2024-02-26T03:49:35;6.97;;;3.30;;
5121;SDS011;2563;52.242;7.956;2024-02-26T03:52:00;16.30;;;4.37;;
5121;SDS011;2563;52.242;7.956;2024-02-26T03:54:25;9.40;;;3.73;;
5121;SDS011;2563;52.242;7.956;2024-02-26T03:56:51;8.60;;;3.80;;
5121;SDS011;2563;52.242;7.956;2024-02-26T03:59:16;10.00;;;3.33;;
5121;SDS011;2563;52.242;7.956;2024-02-26T04:01:48;9.07;;;3.00;;
5121;SDS011;2563;52.242;7.956;2024-02-26T04:04:13;7.73;;;3.07;;
5121;SDS011;2563;52.242;7.956;2024-02-26T04:06:38;6.07;;;2.50;;
5121;SDS011;2563;52.242;7.956;2024-02-26T04:09:04;5.63;;;2.53;;
5121;SDS011;2563;52.242;7.956;2024-02-26T04:11:29;7.27;;;3.47;;
5121;SDS011;2563;52.242;7.956;2024-02-26T04:13:54;6.00;;;2.27;;
5121;SDS011;2563;52.242;7.956;2024-02-26T04:16:20;5.80;;;2.40;;
5121;SDS011;2563;52.242;7.956;2024-02-26T04:18:45;7.40;;;2.70;;
5121;SDS011;2563;52.242;7.956;2024-02-26T04:21:11;6.30;;;3.13;;
5121;SDS011;2563;52.242;7.956;2024-02-26T04:23:36;5.90;;;2.70;;
5121;SDS011;2563;52.242;7.956;2024-02-26T04:26:02;5.83;;;2.43;;
5121;SDS011;2563;52.242;7.956;2024-02-26T04:28:27;5.77;;;2.70;;
5121;SDS011;2563;52.242;7.956;2024-02-26T04:30:55;6.73;;;3.17;;
5121;SDS011;2563;52.242;7.956;2024-02-26T04:33:21;8.80;;;3.53;;
5121;SDS011;2563;52.242;7.956;2024-02-26T04:35:47;6.30;;;2.80;;
5121;SDS011;2563;52.242;7.956;2024-02-26T04:38:12;6.00;;;2.30;;
5121;SDS011;2563;52.242;7.956;2024-02-26T04:40:37;6.70;;;2.33;;
5121;SDS011;2563;52.242;7.956;2024-02-26T04:43:03;6.00;;;2.47;;
5121;SDS011;2563;52.242;7.956;2024-02-26T04:45:28;5.77;;;2.23;;
5121;SDS011;2563;52.242;7.956;2024-02-26T04:47:54;6.33;;;2.47;;
5121;SDS011;2563;52.242;7.956;2024-02-26T04:50:19;6.90;;;2.90;;
5121;SDS011;2563;52.242;7.956;2024-02-26T04:52:44;9.77;;;2.90;;
5121;SDS011;2563;52.242;7.956;2024-02-26T04:55:10;6.33;;;2.40;;
5121;SDS011;2563;52.242;7.956;2024-02-26T04:57:35;6.40;;;2.40;;
5121;SDS011;2563;52.242;7.956;2024-02-26T05:00:00;5.77;;;1.87;;
5121;SDS011;2563;52.242;7.956;2024-02-26T05:02:26;7.67;;;2.67;;
5121;SDS011;2563;52.242;7.956;2024-02-26T05:04:52;7.30;;;2.10;;
5121;SDS011;2563;52.242;7.956;2024-02-26T05:07:17;7.03;;;2.50;;
5121;SDS011;2563;52.242;7.956;2024-02-26T05:09:43;6.73;;;2.73;;
5121;SDS011;2563;52.242;7.956;2024-02-26T05:12:09;5.33;;;2.27;;
5121;SDS011;2563;52.242;7.956;2024-02-26T05:14:35;7.40;;;2.37;;
5121;SDS011;2563;52.242;7.956;2024-02-26T05:17:00;5.40;;;2.33;;
5121;SDS011;2563;52.242;7.956;2024-02-26T05:19:25;9.10;;;2.80;;
5121;SDS011;2563;52.242;7.956;2024-02-26T05:21:51;6.47;;;2.57;;
5121;SDS011;2563;52.242;7.956;2024-02-26T05:24:16;7.23;;;2.80;;
5121;SDS011;2563;52.242;7.956;2024-02-26T05:26:42;5.80;;;2.63;;
5121;SDS011;2563;52.242;7.956;2024-02-26T05:29:08;7.00;;;2.90;;
5121;SDS011;2563;52.242;7.956;2024-02-26T05:31:34;6.80;;;2.93;;
5121;SDS011;2563;52.242;7.956;2024-02-26T05:33:59;7.43;;;2.93;;
5121;SDS011;2563;52.242;7.956;2024-02-26T05:36:24;6.80;;;3.10;;
5121;SDS011;2563;52.242;7.956;2024-02-26T05:38:53;7.33;;;3.50;;
5121;SDS011;2563;52.242;7.956;2024-02-26T05:41:19;6.70;;;3.07;;
5121;SDS011;2563;52.242;7.956;2024-02-26T05:43:51;6.80;;;2.97;;
5121;SDS011;2563;52.242;7.956;2024-02-26T05:46:17;11.90;;;3.23;;
5121;SDS011;2563;52.242;7.956;2024-02-26T05:48:43;6.77;;;2.70;;
5121;SDS011;2563;52.242;7.956;2024-02-26T05:51:09;6.57;;;2.73;;
5121;SDS011;2563;52.242;7.956;2024-02-26T05:53:34;7.20;;;3.13;;
5121;SDS011;2563;52.242;7.956;2024-02-26T05:56:00;7.43;;;3.13;;
5121;SDS011;2563;52.242;7.956;2024-02-26T05:58:25;7.13;;;3.07;;
5121;SDS011;2563;52.242;7.956;2024-02-26T06:00:50;7.33;;;3.47;;
5121;SDS011;2563;52.242;7.956;2024-02-26T06:03:16;9.30;;;3.63;;
5121;SDS011;2563;52.242;7.956;2024-02-26T06:05:41;11.07;;;3.90;;
5121;SDS011;2563;52.242;7.956;2024-02-26T06:08:07;6.53;;;3.20;;
5121;SDS011;2563;52.242;7.956;2024-02-26T06:10:33;6.43;;;3.40;;
5121;SDS011;2563;52.242;7.956;2024-02-26T06:12:58;8.70;;;3.80;;
5121;SDS011;2563;52.242;7.956;2024-02-26T06:15:24;7.10;;;3.53;;
5121;SDS011;2563;52.242;7.956;2024-02-26T06:17:49;7.90;;;3.83;;
5121;SDS011;2563;52.242;7.956;2024-02-26T06:20:15;12.63;;;4.20;;
5121;SDS011;2563;52.242;7.956;2024-02-26T06:22:40;8.73;;;4.10;;
5121;SDS011;2563;52.242;7.956;2024-02-26T06:25:06;9.47;;;4.10;;
5121;SDS011;2563;52.242;7.956;2024-02-26T06:27:32;7.93;;;3.23;;
5121;SDS011;2563;52.242;7.956;2024-02-26T06:29:58;11.73;;;4.03;;
5121;SDS011;2563;52.242;7.956;2024-02-26T06:32:23;8.70;;;3.77;;
5121;SDS011;2563;52.242;7.956;2024-02-26T06:34:48;14.37;;;5.07;;
5121;SDS011;2563;52.242;7.956;2024-02-26T06:37:14;10.23;;;3.80;;
5121;SDS011;2563;52.242;7.956;2024-02-26T06:39:39;9.57;;;4.50;;
5121;SDS011;2563;52.242;7.956;2024-02-26T06:42:06;9.03;;;4.33;;
5121;SDS011;2563;52.242;7.956;2024-02-26T06:44:31;7.70;;;4.03;;
5121;SDS011;2563;52.242;7.956;2024-02-26T06:47:00;8.97;;;4.40;;
5121;SDS011;2563;52.242;7.956;2024-02-26T06:49:26;10.63;;;4.07;;
5121;SDS011;2563;52.242;7.956;2024-02-26T06:51:52;7.73;;;4.03;;
5121;SDS011;2563;52.242;7.956;2024-02-26T06:54:17;10.07;;;4.23;;
5121;SDS011;2563;52.242;7.956;2024-02-26T06:56:43;9.43;;;4.20;;
5121;SDS011;2563;52.242;7.956;2024-02-26T06:59:08;12.10;;;3.90;;
5121;SDS011;2563;52.242;7.956;2024-02-26T07:01:33;9.70;;;4.30;;
5121;SDS011;2563;52.242;7.956;2024-02-26T07:03:59;8.40;;;4.30;;
5121;SDS011;2563;52.242;7.956;2024-02-26T07:06:25;10.97;;;4.03;;
5121;SDS011;2563;52.242;7.956;2024-02-26T07:08:51;12.40;;;4.47;;
5121;SDS011;2563;52.242;7.956;2024-02-26T07:11:17;8.30;;;4.03;;
5121;SDS011;2563;52.242;7.956;2024-02-26T07:13:44;9.37;;;4.10;;
5121;SDS011;2563;52.242;7.956;2024-02-26T07:16:09;10.23;;;3.90;;
5121;SDS011;2563;52.242;7.956;2024-02-26T07:18:35;8.97;;;3.90;;
5121;SDS011;2563;52.242;7.956;2024-02-26T07:21:04;8.50;;;4.10;;
5121;SDS011;2563;52.242;7.956;2024-02-26T07:23:29;9.90;;;4.23;;
5121;SDS011;2563;52.242;7.956;2024-02-26T07:25:55;9.73;;;4.20;;
5121;SDS011;2563;52.242;7.956;2024-02-26T07:28:20;10.47;;;3.80;;
5121;SDS011;2563;52.242;7.956;2024-02-26T07:30:46;8.30;;;3.43;;
5121;SDS011;2563;52.242;7.956;2024-02-26T07:33:11;9.83;;;4.43;;
5121;SDS011;2563;52.242;7.956;2024-02-26T07:35:37;8.00;;;3.60;;
5121;SDS011;2563;52.242;7.956;2024-02-26T07:38:04;8.23;;;3.80;;
5121;SDS011;2563;52.242;7.956;2024-02-26T07:40:29;8.53;;;3.43;;
5121;SDS011;2563;52.242;7.956;2024-02-26T07:42:55;6.80;;;3.30;;
5121;SDS011;2563;52.242;7.956;2024-02-26T07:45:21;8.30;;;3.30;;
5121;SDS011;2563;52.242;7.956;2024-02-26T07:47:46;10.03;;;3.50;;
5121;SDS011;2563;52.242;7.956;2024-02-26T07:50:12;7.47;;;3.20;;
5121;SDS011;2563;52.242;7.956;2024-02-26T07:52:38;6.70;;;3.20;;
5121;SDS011;2563;52.242;7.956;2024-02-26T07:55:04;10.73;;;3.00;;
5121;SDS011;2563;52.242;7.956;2024-02-26T07:57:31;9.73;;;3.40;;
5121;SDS011;2563;52.242;7.956;2024-02-26T07:59:58;7.83;;;3.73;;
5121;SDS011;2563;52.242;7.956;2024-02-26T08:02:24;12.47;;;3.27;;
5121;SDS011;2563;52.242;7.956;2024-02-26T08:04:49;5.97;;;2.77;;
5121;SDS011;2563;52.242;7.956;2024-02-26T08:07:15;6.70;;;2.90;;
5121;SDS011;2563;52.242;7.956;2024-02-26T08:09:40;8.83;;;3.10;;
5121;SDS011;2563;52.242;7.956;2024-02-26T08:12:06;9.30;;;2.50;;
5121;SDS011;2563;52.242;7.956;2024-02-26T08:14:31;7.10;;;3.10;;
5121;SDS011;2563;52.242;7.956;2024-02-26T08:16:57;9.57;;;2.90;;
5121;SDS011;2563;52.242;7.956;2024-02-26T08:19:23;6.77;;;3.10;;
5121;SDS011;2563;52.242;7.956;2024-02-26T08:21:49;7.53;;;3.17;;
5121;SDS011;2563;52.242;7.956;2024-02-26T08:24:14;7.13;;;2.93;;
5121;SDS011;2563;52.242;7.956;2024-02-26T08:26:40;7.50;;;3.50;;
5121;SDS011;2563;52.242;7.956;2024-02-26T08:29:05;6.40;;;2.90;;
5121;SDS011;2563;52.242;7.956;2024-02-26T08:31:30;9.10;;;3.33;;
5121;SDS011;2563;52.242;7.956;2024-02-26T08:33:56;7.87;;;3.23;;
5121;SDS011;2563;52.242;7.956;2024-02-26T08:36:21;7.33;;;3.53;;
5121;SDS011;2563;52.242;7.956;2024-02-26T08:38:46;10.50;;;2.90;;
5121;SDS011;2563;52.242;7.956;2024-02-26T08:41:12;8.87;;;2.87;;
5121;SDS011;2563;52.242;7.956;2024-02-26T08:43:38;9.43;;;3.10;;
5121;SDS011;2563;52.242;7.956;2024-02-26T08:46:03;7.63;;;3.10;;
5121;SDS011;2563;52.242;7.956;2024-02-26T08:48:29;6.77;;;3.07;;
5121;SDS011;2563;52.242;7.956;2024-02-26T08:50:54;9.53;;;3.53;;
5121;SDS011;2563;52.242;7.956;2024-02-26T08:53:20;10.70;;;4.00;;
5121;SDS011;2563;52.242;7.956;2024-02-26T08:55:45;9.00;;;3.43;;
5121;SDS011;2563;52.242;7.956;2024-02-26T08:58:11;6.87;;;3.23;;
5121;SDS011;2563;52.242;7.956;2024-02-26T09:00:36;7.43;;;3.43;;
5121;SDS011;2563;52.242;7.956;2024-02-26T09:03:01;7.80;;;3.03;;
5121;SDS011;2563;52.242;7.956;2024-02-26T09:05:27;8.57;;;3.30;;
5121;SDS011;2563;52.242;7.956;2024-02-26T09:07:53;8.93;;;3.97;;
5121;SDS011;2563;52.242;7.956;2024-02-26T09:10:19;8.30;;;3.20;;
5121;SDS011;2563;52.242;7.956;2024-02-26T09:12:44;7.43;;;3.20;;
5121;SDS011;2563;52.242;7.956;2024-02-26T09:15:09;10.10;;;3.60;;
5121;SDS011;2563;52.242;7.956;2024-02-26T09:17:35;7.80;;;3.63;;
5121;SDS011;2563;52.242;7.956;2024-02-26T09:20:02;7.80;;;3.93;;
5121;SDS011;2563;52.242;7.956;2024-02-26T09:22:27;9.10;;;3.73;;
5121;SDS011;2563;52.242;7.956;2024-02-26T09:24:53;8.40;;;3.53;;
5121;SDS011;2563;52.242;7.956;2024-02-26T09:27:18;8.43;;;4.10;;
5121;SDS011;2563;52.242;7.956;2024-02-26T09:29:44;9.20;;;4.10;;
5121;SDS011;2563;52.242;7.956;2024-02-26T09:32:09;8.00;;;3.67;;
5121;SDS011;2563;52.242;7.956;2024-02-26T09:34:35;12.60;;;3.90;;
5121;SDS011;2563;52.242;7.956;2024-02-26T09:37:00;8.40;;;3.87;;
5121;SDS011;2563;52.242;7.956;2024-02-26T09:39:26;8.67;;;4.00;;
5121;SDS011;2563;52.242;7.956;2024-02-26T09:41:52;10.17;;;4.27;;
5121;SDS011;2563;52.242;7.956;2024-02-26T09:44:19;8.93;;;3.27;;
5121;SDS011;2563;52.242;7.956;2024-02-26T09:46:48;8.87;;;3.93;;
5121;SDS011;2563;52.242;7.956;2024-02-26T09:49:15;8.67;;;3.40;;
5121;SDS011;2563;52.242;7.956;2024-02-26T09:51:40;8.53;;;3.97;;
5121;SDS011;2563;52.242;7.956;2024-02-26T09:54:07;7.97;;;3.47;;
5121;SDS011;2563;52.242;7.956;2024-02-26T09:56:35;10.77;;;3.50;;
5121;SDS011;2563;52.242;7.956;2024-02-26T09:59:05;10.40;;;3.23;;
5121;SDS011;2563;52.242;7.956;2024-02-26T10:01:35;7.00;;;3.40;;
5121;SDS011;2563;52.242;7.956;2024-02-26T10:04:03;7.00;;;3.17;;
5121;SDS011;2563;52.242;7.956;2024-02-26T10:06:29;8.93;;;3.83;;
5121;SDS011;2563;52.242;7.956;2024-02-26T10:08:55;6.13;;;2.60;;
5121;SDS011;2563;52.242;7.956;2024-02-26T10:11:23;6.63;;;3.07;;
5121;SDS011;2563;52.242;7.956;2024-02-26T10:13:49;5.67;;;2.50;;
5121;SDS011;2563;52.242;7.956;2024-02-26T10:16:14;7.67;;;3.17;;
5121;SDS011;2563;52.242;7.956;2024-02-26T10:18:45;5.90;;;2.90;;
5121;SDS011;2563;52.242;7.956;2024-02-26T10:21:13;6.10;;;2.50;;
5121;SDS011;2563;52.242;7.956;2024-02-26T10:23:39;7.00;;;3.40;;
5121;SDS011;2563;52.242;7.956;2024-02-26T10:26:04;5.50;;;2.53;;
5121;SDS011;2563;52.242;7.956;2024-02-26T10:28:29;9.17;;;2.73;;
5121;SDS011;2563;52.242;7.956;2024-02-26T10:30:55;7.13;;;3.00;;
5121;SDS011;2563;52.242;7.956;2024-02-26T10:33:21;9.63;;;2.60;;
5121;SDS011;2563;52.242;7.956;2024-02-26T10:35:47;6.27;;;2.60;;
5121;SDS011;2563;52.242;7.956;2024-02-26T10:38:13;6.77;;;2.80;;
5121;SDS011;2563;52.242;7.956;2024-02-26T10:40:38;6.13;;;2.80;;
5121;SDS011;2563;52.242;7.956;2024-02-26T10:43:04;8.43;;;2.70;;
5121;SDS011;2563;52.242;7.956;2024-02-26T10:45:29;8.33;;;2.80;;
5121;SDS011;2563;52.242;7.956;2024-02-26T10:47:54;5.83;;;2.90;;
5121;SDS011;2563;52.242;7.956;2024-02-26T10:50:21;5.63;;;2.70;;
5121;SDS011;2563;52.242;7.956;2024-02-26T10:52:47;7.00;;;2.67;;
5121;SDS011;2563;52.242;7.956;2024-02-26T10:55:14;6.30;;;2.10;;
5121;SDS011;2563;52.242;7.956;2024-02-26T10:57:43;5.37;;;2.00;;
5121;SDS011;2563;52.242;7.956;2024-02-26T11:00:10;5.30;;;2.23;;
5121;SDS011;2563;52.242;7.956;2024-02-26T11:02:38;10.10;;;3.17;;
5121;SDS011;2563;52.242;7.956;2024-02-26T11:05:05;5.67;;;2.50;;
5121;SDS011;2563;52.242;7.956;2024-02-26T11:07:35;5.77;;;2.47;;
5121;SDS011;2563;52.242;7.956;2024-02-26T11:10:02;5.77;;;2.90;;
5121;SDS011;2563;52.242;7.956;2024-02-26T11:12:29;6.20;;;2.20;;
5121;SDS011;2563;52.242;7.956;2024-02-26T11:14:57;5.93;;;2.30;;
5121;SDS011;2563;52.242;7.956;2024-02-26T11:17:26;6.50;;;2.73;;
5121;SDS011;2563;52.242;7.956;2024-02-26T11:19:57;9.83;;;3.63;;
5121;SDS011;2563;52.242;7.956;2024-02-26T11:22:23;9.30;;;3.23;;
5121;SDS011;2563;52.242;7.956;2024-02-26T11:24:53;7.50;;;2.97;;
5121;SDS011;2563;52.242;7.956;2024-02-26T11:27:27;7.77;;;3.47;;
5121;SDS011;2563;52.242;7.956;2024-02-26T11:29:56;7.33;;;3.20;;
5121;SDS011;2563;52.242;7.956;2024-02-26T11:32:25;8.63;;;3.47;;
5121;SDS011;2563;52.242;7.956;2024-02-26T11:34:51;7.80;;;3.30;;
5121;SDS011;2563;52.242;7.956;2024-02-26T11:37:19;8.70;;;3.73;;
5121;SDS011;2563;52.242;7.956;2024-02-26T11:39:45;8.00;;;3.30;;
5121;SDS011;2563;52.242;7.956;2024-02-26T11:42:13;8.83;;;3.30;;
5121;SDS011;2563;52.242;7.956;2024-02-26T11:44:40;6.73;;;3.23;;
5121;SDS011;2563;52.242;7.956;2024-02-26T11:47:14;7.40;;;3.47;;
5121;SDS011;2563;52.242;7.956;2024-02-26T11:49:43;9.43;;;3.70;;
5121;SDS011;2563;52.242;7.956;2024-02-26T11:52:09;14.43;;;3.70;;
5121;SDS011;2563;52.242;7.956;2024-02-26T11:59:48;6.30;;;2.80;;
5121;SDS011;2563;52.242;7.956;2024-02-26T12:05:20;6.37;;;2.67;;
5121;SDS011;2563;52.242;7.956;2024-02-26T12:10:32;5.27;;;2.07;;
5121;SDS011;2563;52.242;7.956;2024-02-26T12:13:16;5.10;;;2.40;;
5121;SDS011;2563;52.242;7.956;2024-02-26T12:15:45;9.30;;;3.60;;
5121;SDS011;2563;52.242;7.956;2024-02-26T12:18:20;6.60;;;2.60;;
5121;SDS011;2563;52.242;7.956;2024-02-26T12:20:47;6.37;;;3.00;;
5121;SDS011;2563;52.242;7.956;2024-02-26T12:23:24;5.50;;;2.47;;
5121;SDS011;2563;52.242;7.956;2024-02-26T12:25:49;5.67;;;2.43;;
5121;SDS011;2563;52.242;7.956;2024-02-26T12:28:15;5.93;;;2.57;;
5121;SDS011;2563;52.242;7.956;2024-02-26T12:30:40;6.10;;;2.63;;
5121;SDS011;2563;52.242;7.956;2024-02-26T12:33:06;5.10;;;2.30;;
5121;SDS011;2563;52.242;7.956;2024-02-26T12:35:33;6.03;;;2.80;;
5121;SDS011;2563;52.242;7.956;2024-02-26T12:38:00;6.40;;;2.60;;
5121;SDS011;2563;52.242;7.956;2024-02-26T12:40:26;7.17;;;3.20;;
5121;SDS011;2563;52.242;7.956;2024-02-26T12:42:52;5.37;;;2.53;;
5121;SDS011;2563;52.242;7.956;2024-02-26T12:45:20;8.17;;;3.20;;
5121;SDS011;2563;52.242;7.956;2024-02-26T12:47:45;6.53;;;3.27;;
5121;SDS011;2563;52.242;7.956;2024-02-26T12:50:11;5.70;;;2.27;;
5121;SDS011;2563;52.242;7.956;2024-02-26T12:52:43;5.50;;;2.33;;
5121;SDS011;2563;52.242;7.956;2024-02-26T12:55:10;5.07;;;2.57;;
5121;SDS011;2563;52.242;7.956;2024-02-26T12:57:40;5.40;;;2.50;;
5121;SDS011;2563;52.242;7.956;2024-02-26T13:00:08;6.97;;;2.53;;
5121;SDS011;2563;52.242;7.956;2024-02-26T13:02:37;7.97;;;2.60;;
5121;SDS011;2563;52.242;7.956;2024-02-26T13:05:04;7.37;;;2.90;;
5121;SDS011;2563;52.242;7.956;2024-02-26T13:07:32;5.60;;;2.53;;
5121;SDS011;2563;52.242;7.956;2024-02-26T13:09:58;4.93;;;2.20;;
5121;SDS011;2563;52.242;7.956;2024-02-26T13:12:23;5.70;;;2.50;;
5121;SDS011;2563;52.242;7.956;2024-02-26T13:15:02;5.10;;;2.20;;
5121;SDS011;2563;52.242;7.956;2024-02-26T13:17:31;7.83;;;2.73;;
5121;SDS011;2563;52.242;7.956;2024-02-26T13:19:57;5.47;;;2.33;;
5121;SDS011;2563;52.242;7.956;2024-02-26T13:22:22;5.33;;;2.50;;
5121;SDS011;2563;52.242;7.956;2024-02-26T13:24:58;5.67;;;2.40;;
5121;SDS011;2563;52.242;7.956;2024-02-26T13:27:24;6.20;;;2.57;;
5121;SDS011;2563;52.242;7.956;2024-02-26T13:32:36;6.90;;;3.00;;
5121;SDS011;2563;52.242;7.956;2024-02-26T13:35:09;6.67;;;2.80;;
5121;SDS011;2563;52.242;7.956;2024-02-26T13:37:36;8.03;;;2.97;;
5121;SDS011;2563;52.242;7.956;2024-02-26T13:40:05;8.00;;;3.17;;
5121;SDS011;2563;52.242;7.956;2024-02-26T13:42:35;5.77;;;3.10;;
5121;SDS011;2563;52.242;7.956;2024-02-26T13:45:01;7.53;;;2.97;;
5121;SDS011;2563;52.242;7.956;2024-02-26T13:47:27;7.90;;;2.60;;
5121;SDS011;2563;52.242;7.956;2024-02-26T13:49:52;6.97;;;3.20;;
5121;SDS011;2563;52.242;7.956;2024-02-26T13:52:18;7.50;;;3.03;;
5121;SDS011;2563;52.242;7.956;2024-02-26T13:54:45;13.60;;;3.20;;
5121;SDS011;2563;52.242;7.956;2024-02-26T13:57:11;6.73;;;3.10;;
5121;SDS011;2563;52.242;7.956;2024-02-26T13:59:36;6.90;;;3.33;;
5121;SDS011;2563;52.242;7.956;2024-02-26T14:02:02;8.07;;;4.00;;
5121;SDS011;2563;52.242;7.956;2024-02-26T14:04:28;8.17;;;3.57;;
5121;SDS011;2563;52.242;7.956;2024-02-26T14:06:53;10.30;;;4.33;;
5121;SDS011;2563;52.242;7.956;2024-02-26T14:09:18;5.60;;;2.80;;
5121;SDS011;2563;52.242;7.956;2024-02-26T14:11:47;6.53;;;3.30;;
5121;SDS011;2563;52.242;7.956;2024-02-26T14:14:13;6.03;;;3.10;;
5121;SDS011;2563;52.242;7.956;2024-02-26T14:16:38;8.30;;;3.73;;
5121;SDS011;2563;52.242;7.956;2024-02-26T14:19:04;5.90;;;3.00;;
5121;SDS011;2563;52.242;7.956;2024-02-26T14:21:29;7.00;;;3.23;;
5121;SDS011;2563;52.242;7.956;2024-02-26T14:23:55;8.03;;;3.47;;
5121;SDS011;2563;52.242;7.956;2024-02-26T14:26:21;7.17;;;3.40;;
5121;SDS011;2563;52.242;7.956;2024-02-26T14:28:49;6.57;;;3.60;;
5121;SDS011;2563;52.242;7.956;2024-02-26T14:31:17;9.30;;;4.27;;
5121;SDS011;2563;52.242;7.956;2024-02-26T14:33:43;7.50;;;3.37;;
5121;SDS011;2563;52.242;7.956;2024-02-26T14:36:09;6.87;;;3.23;;
5121;SDS011;2563;52.242;7.956;2024-02-26T14:38:34;5.67;;;2.73;;
5121;SDS011;2563;52.242;7.956;2024-02-26T14:41:00;7.00;;;3.00;;
5121;SDS011;2563;52.242;7.956;2024-02-26T14:43:26;7.10;;;3.40;;
5121;SDS011;2563;52.242;7.956;2024-02-26T14:45:51;5.70;;;2.57;;
5121;SDS011;2563;52.242;7.956;2024-02-26T14:48:17;6.40;;;3.07;;
5121;SDS011;2563;52.242;7.956;2024-02-26T14:50:42;6.20;;;3.00;;
5121;SDS011;2563;52.242;7.956;2024-02-26T14:53:07;7.10;;;3.43;;
5121;SDS011;2563;52.242;7.956;2024-02-26T14:55:33;7.00;;;3.17;;
5121;SDS011;2563;52.242;7.956;2024-02-26T14:57:59;6.00;;;2.60;;
5121;SDS011;2563;52.242;7.956;2024-02-26T15:00:24;5.80;;;2.70;;
5121;SDS011;2563;52.242;7.956;2024-02-26T15:02:50;5.60;;;2.70;;
5121;SDS011;2563;52.242;7.956;2024-02-26T15:05:17;8.47;;;2.83;;
5121;SDS011;2563;52.242;7.956;2024-02-26T15:07:44;7.10;;;2.87;;
5121;SDS011;2563;52.242;7.956;2024-02-26T15:10:09;6.70;;;3.00;;
5121;SDS011;2563;52.242;7.956;2024-02-26T15:12:35;7.33;;;3.43;;
5121;SDS011;2563;52.242;7.956;2024-02-26T15:15:00;8.60;;;3.50;;
5121;SDS011;2563;52.242;7.956;2024-02-26T15:17:26;10.07;;;4.00;;
5121;SDS011;2563;52.242;7.956;2024-02-26T15:19:53;7.20;;;3.50;;